createdAt,value
2023-10-14T00:00:41.775Z,11.88
2023-10-14T00:02:44.951Z,11.15
2023-10-14T00:04:48.969Z,11.10
2023-10-14T00:06:53.220Z,10.82
2023-10-14T00:09:10.550Z,10.18
2023-10-14T00:11:15.660Z,10.80
2023-10-14T00:13:18.921Z,10.75
2023-10-14T00:15:22.320Z,9.23
2023-10-14T00:17:27.000Z,9.82
2023-10-14T00:19:30.916Z,10.18
2023-10-14T00:21:37.922Z,10.05
2023-10-14T00:23:41.212Z,10.65
2023-10-14T00:25:45.304Z,10.23
2023-10-14T00:27:48.634Z,11.07
2023-10-14T00:30:07.907Z,9.88
2023-10-14T00:32:12.286Z,10.38
2023-10-14T00:34:16.295Z,10.32
2023-10-14T00:36:20.003Z,10.38
2023-10-14T00:38:25.684Z,12.15
2023-10-14T00:40:29.026Z,11.82
2023-10-14T00:42:33.146Z,13.38
2023-10-14T00:44:36.438Z,10.60
2023-10-14T00:46:51.639Z,12.63
2023-10-14T00:49:00.844Z,13.20
2023-10-14T00:51:04.076Z,12.85
2023-10-14T00:53:07.881Z,13.60
2023-10-14T00:55:15.231Z,15.52
2023-10-14T00:57:18.763Z,12.80
2023-10-14T00:59:22.277Z,13.02
2023-10-14T01:01:24.427Z,11.80
2023-10-14T01:03:33.149Z,13.93
2023-10-14T01:05:37.457Z,12.80
2023-10-14T01:07:40.645Z,13.65
2023-10-14T01:09:42.971Z,13.80
2023-10-14T01:11:44.657Z,14.20
2023-10-14T01:13:46.372Z,13.60
2023-10-14T01:15:49.777Z,16.20
2023-10-14T01:17:54.710Z,14.40
2023-10-14T01:20:18.016Z,14.20
2023-10-14T01:22:20.553Z,15.02
2023-10-14T01:26:25.724Z,13.40
2023-10-14T01:28:31.534Z,16.05
2023-10-14T01:30:40.062Z,16.58
2023-10-14T01:32:50.567Z,15.98
2023-10-14T01:34:58.709Z,15.30
2023-10-14T01:37:14.186Z,15.60
2023-10-14T01:39:23.001Z,14.48
2023-10-14T01:41:26.064Z,14.07
2023-10-14T01:43:31.457Z,13.93
2023-10-14T01:45:40.945Z,14.75
2023-10-14T01:47:50.094Z,14.93
2023-10-14T01:49:53.046Z,16.00
2023-10-14T01:51:55.094Z,13.60
2023-10-14T01:53:56.745Z,13.90
2023-10-14T01:56:02.474Z,15.63
2023-10-14T01:58:04.569Z,15.32
2023-10-14T02:00:25.258Z,15.55
2023-10-14T02:02:28.761Z,16.23
2023-10-14T02:04:31.211Z,15.85
2023-10-14T02:08:34.581Z,16.90
2023-10-14T02:10:37.529Z,16.95
2023-10-14T02:12:39.151Z,16.67
2023-10-14T02:14:45.516Z,15.87
2023-10-14T02:16:47.224Z,17.40
2023-10-14T02:18:48.861Z,82.95
2023-10-14T02:21:20.227Z,92.28
2023-10-14T02:23:22.907Z,57.40
2023-10-14T02:25:28.764Z,15.18
2023-10-14T02:27:31.744Z,15.40
2023-10-14T02:29:34.055Z,17.10
2023-10-14T02:31:39.631Z,17.60
2023-10-14T02:33:41.258Z,16.80
2023-10-14T02:35:42.880Z,16.08
2023-10-14T02:37:44.601Z,17.77
2023-10-14T02:39:49.894Z,28.13
2023-10-14T02:42:01.284Z,19.85
2023-10-14T02:44:06.117Z,17.52
2023-10-14T02:46:12.207Z,18.75
2023-10-14T02:48:20.124Z,24.55
2023-10-14T02:50:25.443Z,24.42
2023-10-14T02:52:31.006Z,17.85
2023-10-14T02:54:35.930Z,19.00
2023-10-14T02:56:55.746Z,23.30
2023-10-14T02:58:57.404Z,19.42
2023-10-14T03:01:00.882Z,19.40
2023-10-14T03:03:16.580Z,20.00
2023-10-14T03:05:36.924Z,19.08
2023-10-14T03:07:47.497Z,19.45
2023-10-14T03:09:49.243Z,21.20
2023-10-14T03:11:50.840Z,19.42
2023-10-14T03:13:52.472Z,21.20
2023-10-14T03:15:54.298Z,32.87
2023-10-14T03:17:57.659Z,18.05
2023-10-14T03:20:09.840Z,24.17
2023-10-14T03:22:11.465Z,19.83
2023-10-14T03:24:18.567Z,17.70
2023-10-14T03:26:21.817Z,18.95
2023-10-14T03:28:28.417Z,20.58
2023-10-14T03:30:32.468Z,17.25
2023-10-14T03:32:34.240Z,16.80
2023-10-14T03:34:42.407Z,17.13
2023-10-14T03:36:44.808Z,17.85
2023-10-14T03:39:17.203Z,17.98
2023-10-14T03:41:22.944Z,20.07
2023-10-14T03:43:25.058Z,18.52
2023-10-14T03:45:30.461Z,19.30
2023-10-14T03:47:35.693Z,19.10
2023-10-14T03:49:39.797Z,19.02
2023-10-14T03:51:41.766Z,18.52
2023-10-14T03:53:43.590Z,19.02
2023-10-14T03:55:45.221Z,22.97
2023-10-14T03:57:46.831Z,35.37
2023-10-14T03:59:49.267Z,20.03
2023-10-14T04:02:01.114Z,19.70
2023-10-14T04:04:16.639Z,20.43
2023-10-14T04:06:20.577Z,19.75
2023-10-14T04:08:31.952Z,24.77
2023-10-14T04:10:39.441Z,19.20
2023-10-14T04:12:54.230Z,19.52
2023-10-14T04:14:56.096Z,17.27
2023-10-14T04:17:16.122Z,20.73
2023-10-14T04:19:45.405Z,18.98
2023-10-14T04:21:54.646Z,20.02
2023-10-14T04:24:25.618Z,19.38
2023-10-14T04:26:32.036Z,21.52
2023-10-14T04:28:34.968Z,18.67
2023-10-14T04:30:45.934Z,19.58
2023-10-14T04:32:47.855Z,19.92
2023-10-14T04:34:50.773Z,20.85
2023-10-14T04:36:55.499Z,19.73
2023-10-14T04:39:12.966Z,21.55
2023-10-14T04:41:15.498Z,20.73
2023-10-14T04:43:20.617Z,20.90
2023-10-14T04:45:32.037Z,21.00
2023-10-14T04:47:39.649Z,18.70
2023-10-14T04:49:43.412Z,28.63
2023-10-14T04:51:47.966Z,19.83
2023-10-14T04:53:53.126Z,23.48
2023-10-14T04:55:55.228Z,80.95
2023-10-14T04:58:12.406Z,19.98
2023-10-14T05:00:21.077Z,19.75
2023-10-14T05:02:23.170Z,37.42
2023-10-14T05:04:30.805Z,17.25
2023-10-14T05:06:40.650Z,16.13
2023-10-14T05:08:45.820Z,17.73
2023-10-14T05:10:51.386Z,15.98
2023-10-14T05:12:53.617Z,35.70
2023-10-14T05:14:56.947Z,16.92
2023-10-14T05:16:59.365Z,59.33
2023-10-14T05:21:36.074Z,19.50
2023-10-14T05:23:39.608Z,16.50
2023-10-14T05:25:41.200Z,17.60
2023-10-14T05:27:59.667Z,18.45
2023-10-14T05:30:07.617Z,19.05
2023-10-14T05:32:12.210Z,18.67
2023-10-14T05:34:14.989Z,18.67
2023-10-14T05:36:16.954Z,15.55
2023-10-14T05:38:20.665Z,17.75
2023-10-14T05:40:23.294Z,20.08
2023-10-14T05:42:25.906Z,22.05
2023-10-14T05:44:30.812Z,21.65
2023-10-14T05:46:32.560Z,33.97
2023-10-14T05:48:34.296Z,40.40
2023-10-14T05:50:39.131Z,30.40
2023-10-14T05:52:40.792Z,19.15
2023-10-14T05:54:51.366Z,33.22
2023-10-14T05:56:53.363Z,83.43
2023-10-14T05:58:55.150Z,23.80
2023-10-14T06:00:57.111Z,21.33
2023-10-14T06:02:59.398Z,20.42
2023-10-14T06:05:01.223Z,21.17
2023-10-14T06:07:02.950Z,21.50
2023-10-14T06:09:04.736Z,70.20
2023-10-14T06:11:06.755Z,41.70
2023-10-14T06:13:10.226Z,30.48
2023-10-14T06:15:12.001Z,28.67
2023-10-14T06:17:13.974Z,21.77
2023-10-14T06:19:19.418Z,104.88
2023-10-14T06:21:21.250Z,33.20
2023-10-14T06:23:24.323Z,21.67
2023-10-14T06:25:31.827Z,18.13
2023-10-14T06:27:33.420Z,19.88
2023-10-14T06:29:35.900Z,63.25
2023-10-14T06:31:41.607Z,27.70
2023-10-14T06:33:43.373Z,23.42
2023-10-14T06:35:45.104Z,76.70
2023-10-14T06:37:47.224Z,20.75
2023-10-14T06:39:48.988Z,28.90
2023-10-14T06:41:50.611Z,38.35
2023-10-14T06:43:57.548Z,17.83
2023-10-14T06:45:59.534Z,17.35
2023-10-14T06:48:04.624Z,18.50
2023-10-14T06:50:07.455Z,18.33
2023-10-14T06:52:13.376Z,16.35
2023-10-14T06:54:15.518Z,15.25
2023-10-14T06:56:17.186Z,17.77
2023-10-14T06:58:20.354Z,18.80
2023-10-14T07:00:30.867Z,16.75
2023-10-14T07:02:32.998Z,18.15
2023-10-14T07:04:39.886Z,16.45
2023-10-14T07:06:43.352Z,16.85
2023-10-14T07:08:46.004Z,14.73
2023-10-14T07:10:49.160Z,14.43
2023-10-14T07:12:51.382Z,14.73
2023-10-14T07:14:54.358Z,14.52
2023-10-14T07:16:56.249Z,15.73
2023-10-14T07:18:57.975Z,16.80
2023-10-14T07:21:01.922Z,16.30
2023-10-14T07:23:04.901Z,14.70
2023-10-14T07:25:06.750Z,14.80
2023-10-14T07:27:08.516Z,16.15
2023-10-14T07:29:10.141Z,15.02
2023-10-14T07:31:12.780Z,16.00
2023-10-14T07:33:15.228Z,13.30
2023-10-14T07:35:18.080Z,13.23
2023-10-14T07:37:21.545Z,14.35
2023-10-14T07:39:29.222Z,13.00
2023-10-14T07:41:31.123Z,12.35
2023-10-14T07:43:35.357Z,9.63
2023-10-14T07:45:38.698Z,12.43
2023-10-14T07:47:42.071Z,11.73
2023-10-14T07:49:45.983Z,10.43
2023-10-14T07:51:48.224Z,8.43
2023-10-14T07:53:49.994Z,8.27
2023-10-14T07:55:57.462Z,6.20
2023-10-14T07:58:01.815Z,6.53
2023-10-14T08:00:13.224Z,5.40
2023-10-14T08:02:19.759Z,5.95
2023-10-14T08:04:24.910Z,6.25
2023-10-14T08:06:27.030Z,7.40
2023-10-14T08:08:32.473Z,6.68
2023-10-14T08:10:34.452Z,6.57
2023-10-14T08:12:38.043Z,5.22
2023-10-14T08:14:39.649Z,5.95
2023-10-14T08:16:42.556Z,4.80
2023-10-14T08:18:46.119Z,5.57
2023-10-14T08:20:47.802Z,5.30
2023-10-14T08:22:49.490Z,7.22
2023-10-14T08:24:51.245Z,5.60
2023-10-14T08:26:52.826Z,5.85
2023-10-14T08:29:01.314Z,4.97
2023-10-14T08:31:05.938Z,4.95
2023-10-14T08:33:10.628Z,5.65
2023-10-14T08:35:19.068Z,5.75
2023-10-14T08:37:20.754Z,7.10
2023-10-14T08:39:25.540Z,5.20
2023-10-14T08:41:27.649Z,4.40
2023-10-14T08:43:32.363Z,5.25
2023-10-14T08:45:37.701Z,4.32
2023-10-14T08:47:41.827Z,4.57
2023-10-14T08:49:44.095Z,4.82
2023-10-14T08:51:54.468Z,4.72
2023-10-14T08:53:57.792Z,4.13
2023-10-14T08:55:59.582Z,5.70
2023-10-14T08:58:08.307Z,6.45
2023-10-14T09:00:13.748Z,4.47
2023-10-14T09:02:15.457Z,4.93
2023-10-14T09:04:26.534Z,3.47
2023-10-14T09:06:28.191Z,4.45
2023-10-14T09:08:33.660Z,3.92
2023-10-14T09:10:38.113Z,4.43
2023-10-14T09:12:40.986Z,6.10
2023-10-14T09:14:43.440Z,5.03
2023-10-14T09:16:50.303Z,5.72
2023-10-14T09:18:58.496Z,4.38
2023-10-14T09:21:06.625Z,4.10
2023-10-14T09:23:11.467Z,8.07
2023-10-14T09:25:15.445Z,3.95
2023-10-14T09:27:17.772Z,3.75
2023-10-14T09:29:21.352Z,4.13
2023-10-14T09:31:26.390Z,4.63
2023-10-14T09:33:29.180Z,3.67
2023-10-14T09:35:31.852Z,3.70
2023-10-14T09:37:33.525Z,4.03
2023-10-14T09:39:35.552Z,3.90
2023-10-14T09:41:38.726Z,4.43
2023-10-14T09:43:49.328Z,5.97
2023-10-14T09:45:57.918Z,5.13
2023-10-14T09:48:00.640Z,2.85
2023-10-14T09:50:02.656Z,4.13
2023-10-14T09:52:04.734Z,4.13
2023-10-14T09:54:07.126Z,3.08
2023-10-14T09:58:19.607Z,2.08
2023-10-14T10:00:22.383Z,2.80
2023-10-14T10:02:24.426Z,5.53
2023-10-14T10:04:29.868Z,8.20
2023-10-14T10:06:37.147Z,2.38
2023-10-14T10:08:41.881Z,3.47
2023-10-14T10:10:44.050Z,4.00
2023-10-14T10:12:53.397Z,3.03
2023-10-14T10:14:58.873Z,1.80
2023-10-14T10:17:04.263Z,4.38
2023-10-14T10:19:07.106Z,2.42
2023-10-14T10:21:08.708Z,3.58
2023-10-14T10:23:11.245Z,2.58
2023-10-14T10:25:15.889Z,2.97
2023-10-14T10:27:18.271Z,2.50
2023-10-14T10:29:23.602Z,2.05
2023-10-14T10:31:25.958Z,2.08
2023-10-14T10:35:29.941Z,11.07
2023-10-14T10:37:34.208Z,3.63
2023-10-14T10:39:38.458Z,3.60
2023-10-14T10:41:40.067Z,3.75
2023-10-14T10:43:41.585Z,3.30
2023-10-14T10:45:43.851Z,3.75
2023-10-14T10:47:46.822Z,4.15
2023-10-14T10:50:00.631Z,5.60
2023-10-14T10:52:09.031Z,2.90
2023-10-14T10:54:12.753Z,2.60
2023-10-14T10:56:14.517Z,4.07
2023-10-14T10:58:17.340Z,4.10
2023-10-14T11:00:19.298Z,2.15
2023-10-14T11:02:22.386Z,2.22
2023-10-14T11:04:24.204Z,2.38
2023-10-14T11:06:27.187Z,3.30
2023-10-14T11:08:29.011Z,2.67
2023-10-14T11:10:31.033Z,6.55
2023-10-14T11:12:36.134Z,2.42
2023-10-14T11:14:38.182Z,2.55
2023-10-14T11:16:44.038Z,3.70
2023-10-14T11:18:47.291Z,2.60
2023-10-14T11:20:49.164Z,5.88
2023-10-14T11:22:51.077Z,5.65
2023-10-14T11:24:54.059Z,6.78
2023-10-14T11:26:56.553Z,3.35
2023-10-14T11:29:00.363Z,2.40
2023-10-14T11:31:02.530Z,3.10
2023-10-14T11:35:06.447Z,2.13
2023-10-14T11:37:08.377Z,2.65
2023-10-14T11:39:16.758Z,6.38
2023-10-14T11:41:19.318Z,2.55
2023-10-14T11:43:22.530Z,1.80
2023-10-14T11:45:25.459Z,5.28
2023-10-14T11:47:30.286Z,7.95
2023-10-14T11:49:32.400Z,2.75
2023-10-14T11:51:38.765Z,4.45
2023-10-14T11:53:44.601Z,4.35
2023-10-14T11:55:46.167Z,1.52
2023-10-14T11:57:48.365Z,5.13
2023-10-14T11:59:50.349Z,3.67
2023-10-14T12:01:51.988Z,3.95
2023-10-14T12:03:54.448Z,4.38
2023-10-14T12:05:58.889Z,6.25
2023-10-14T12:08:02.315Z,4.75
2023-10-14T12:10:06.874Z,3.83
2023-10-14T12:12:09.674Z,1.90
2023-10-14T12:14:17.737Z,3.97
2023-10-14T12:16:19.992Z,4.55
2023-10-14T12:18:21.757Z,1.77
2023-10-14T12:20:23.714Z,2.13
2023-10-14T12:22:25.954Z,5.55
2023-10-14T12:24:27.601Z,2.35
2023-10-14T12:26:38.932Z,1.40
2023-10-14T12:28:40.959Z,4.57
2023-10-14T12:30:44.038Z,4.13
2023-10-14T12:32:48.062Z,4.80
2023-10-14T12:34:50.309Z,2.35
2023-10-14T12:36:54.020Z,3.75
2023-10-14T12:38:55.849Z,5.25
2023-10-14T12:40:57.517Z,4.00
2023-10-14T12:43:03.982Z,6.05
2023-10-14T12:45:13.124Z,3.13
2023-10-14T12:47:15.645Z,1.50
2023-10-14T12:49:20.720Z,3.92
2023-10-14T12:51:27.010Z,3.83
2023-10-14T12:53:28.705Z,3.17
2023-10-14T12:55:33.322Z,4.43
2023-10-14T12:57:35.927Z,1.45
2023-10-14T12:59:43.414Z,3.63
2023-10-14T13:01:48.841Z,1.65
2023-10-14T13:03:54.754Z,2.75
2023-10-14T13:05:56.736Z,3.08
2023-10-14T13:07:58.403Z,3.17
2023-10-14T13:10:00.332Z,2.90
2023-10-14T13:14:06.372Z,1.27
2023-10-14T13:16:08.501Z,1.55
2023-10-14T13:18:13.883Z,2.63
2023-10-14T13:20:21.740Z,2.85
2023-10-14T13:22:25.134Z,3.40
2023-10-14T13:24:26.847Z,2.70
2023-10-14T13:26:28.516Z,1.35
2023-10-14T13:28:31.884Z,4.43
2023-10-14T13:30:34.139Z,1.45
2023-10-14T13:32:36.105Z,1.40
2023-10-14T13:36:51.351Z,1.87
2023-10-14T13:38:59.221Z,2.45
2023-10-14T13:41:00.831Z,3.55
2023-10-14T13:43:02.456Z,4.35
2023-10-14T13:45:05.887Z,1.48
2023-10-14T13:47:07.579Z,2.13
2023-10-14T13:49:09.903Z,3.40
2023-10-14T13:51:12.627Z,3.35
2023-10-14T13:53:21.113Z,3.65
2023-10-14T13:55:25.870Z,3.78
2023-10-14T13:57:27.477Z,2.63
2023-10-14T13:59:29.153Z,1.65
2023-10-14T14:01:30.798Z,0.85
2023-10-14T14:03:32.915Z,6.45
2023-10-14T14:05:35.423Z,1.75
2023-10-14T14:07:38.505Z,1.20
2023-10-14T14:09:41.955Z,4.72
2023-10-14T14:11:43.510Z,7.15
2023-10-14T14:13:45.108Z,0.95
2023-10-14T14:15:48.200Z,2.60
2023-10-14T14:17:49.829Z,5.65
2023-10-14T14:19:51.575Z,3.05
2023-10-14T14:21:53.453Z,5.22
2023-10-14T14:25:57.639Z,4.45
2023-10-14T14:28:05.308Z,2.25
2023-10-14T14:30:09.250Z,3.28
2023-10-14T14:32:11.198Z,3.08
2023-10-14T14:36:17.049Z,1.85
2023-10-14T14:38:22.308Z,2.20
2023-10-14T14:40:25.670Z,2.25
2023-10-14T14:42:28.374Z,1.00
2023-10-14T14:44:30.699Z,5.43
2023-10-14T14:46:32.321Z,1.63
2023-10-14T14:48:33.951Z,4.00
2023-10-14T14:50:35.743Z,4.25
2023-10-14T14:52:37.536Z,3.45
2023-10-14T14:54:41.954Z,2.38
2023-10-14T14:56:45.755Z,5.05
2023-10-14T14:58:47.386Z,1.02
2023-10-14T15:00:51.809Z,1.48
2023-10-14T15:02:59.590Z,3.15
2023-10-14T15:05:05.140Z,3.70
2023-10-14T15:07:06.751Z,6.28
2023-10-14T15:09:16.088Z,1.95
2023-10-14T15:11:18.408Z,1.73
2023-10-14T15:13:21.646Z,1.92
2023-10-14T15:15:23.328Z,1.63
2023-10-14T15:17:25.593Z,6.90
2023-10-14T15:19:27.504Z,7.18
2023-10-14T15:21:29.732Z,5.30
2023-10-14T15:23:31.323Z,1.52
2023-10-14T15:25:37.964Z,4.15
2023-10-14T15:27:44.282Z,2.67
2023-10-14T15:29:49.804Z,2.15
2023-10-14T15:31:51.553Z,4.35
2023-10-14T15:33:56.460Z,1.48
2023-10-14T15:36:12.822Z,6.75
2023-10-14T15:38:15.134Z,1.48
2023-10-14T15:42:22.094Z,4.47
2023-10-14T15:44:25.237Z,3.65
2023-10-14T15:46:28.389Z,2.22
2023-10-14T15:48:34.947Z,3.72
2023-10-14T15:50:41.803Z,3.35
2023-10-14T15:52:44.418Z,2.58
2023-10-14T15:54:48.635Z,5.05
2023-10-14T15:56:52.063Z,3.20
2023-10-14T15:58:53.764Z,3.70
2023-10-14T16:00:58.412Z,5.40
2023-10-14T16:03:09.970Z,3.08
2023-10-14T16:05:12.100Z,7.50
2023-10-14T16:07:13.916Z,1.88
2023-10-14T16:09:15.644Z,6.40
2023-10-14T16:11:17.245Z,2.70
2023-10-14T16:13:18.972Z,7.75
2023-10-14T16:15:21.018Z,4.20
2023-10-14T16:17:22.625Z,2.78
2023-10-14T16:19:25.088Z,4.60
2023-10-14T16:21:27.421Z,6.60
2023-10-14T16:23:29.066Z,5.28
2023-10-14T16:25:33.551Z,7.63
2023-10-14T16:27:37.474Z,3.00
2023-10-14T16:29:39.150Z,3.03
2023-10-14T16:31:43.415Z,3.03
2023-10-14T16:33:46.484Z,4.65
2023-10-14T16:35:50.832Z,4.40
2023-10-14T16:37:53.677Z,4.25
2023-10-14T16:39:55.701Z,3.10
2023-10-14T16:41:57.301Z,3.55
2023-10-14T16:44:01.667Z,5.78
2023-10-14T16:46:05.596Z,2.97
2023-10-14T16:48:13.500Z,3.83
2023-10-14T16:50:16.415Z,4.32
2023-10-14T16:52:19.378Z,3.72
2023-10-14T16:54:21.149Z,12.43
2023-10-14T16:56:26.604Z,5.05
2023-10-14T16:58:28.339Z,7.18
2023-10-14T17:00:34.628Z,2.67
2023-10-14T17:02:36.762Z,4.75
2023-10-14T17:04:38.481Z,10.48
2023-10-14T17:06:40.183Z,5.93
2023-10-14T17:08:43.284Z,2.78
2023-10-14T17:10:46.128Z,5.00
2023-10-14T17:12:50.136Z,4.63
2023-10-14T17:14:52.218Z,3.03
2023-10-14T17:16:53.865Z,6.68
2023-10-14T17:18:55.517Z,3.85
2023-10-14T17:20:57.688Z,8.13
2023-10-14T17:25:04.320Z,2.22
2023-10-14T17:27:08.438Z,2.67
2023-10-14T17:29:12.551Z,3.83
2023-10-14T17:31:16.256Z,3.05
2023-10-14T17:33:18.152Z,2.55
2023-10-14T17:35:23.895Z,3.65
2023-10-14T17:37:26.255Z,2.70
2023-10-14T17:39:28.033Z,3.63
2023-10-14T17:41:29.629Z,2.92
2023-10-14T17:43:31.984Z,3.90
2023-10-14T17:45:34.387Z,10.85
2023-10-14T17:47:36.102Z,6.65
2023-10-14T17:49:37.868Z,2.22
2023-10-14T17:51:39.506Z,4.30
2023-10-14T17:53:41.529Z,3.45
2023-10-14T17:55:46.799Z,5.63
2023-10-14T17:57:48.508Z,5.05
2023-10-14T17:59:50.158Z,6.72
2023-10-14T18:01:51.797Z,2.80
2023-10-14T18:03:57.254Z,2.13
2023-10-14T18:05:58.968Z,5.43
2023-10-14T18:08:00.597Z,3.33
2023-10-14T18:10:02.151Z,4.95
2023-10-14T18:12:05.100Z,7.43
2023-10-14T18:14:07.071Z,3.88
2023-10-14T18:16:09.118Z,3.40
2023-10-14T18:18:12.780Z,4.90
2023-10-14T18:20:15.745Z,1.58
2023-10-14T18:22:17.433Z,2.70
2023-10-14T18:24:19.447Z,3.55
2023-10-14T18:26:21.080Z,3.15
2023-10-14T18:28:22.937Z,2.17
2023-10-14T18:30:25.889Z,5.18
2023-10-14T18:32:27.725Z,3.38
2023-10-14T18:34:30.239Z,3.75
2023-10-14T18:36:32.729Z,4.82
2023-10-14T18:38:35.152Z,1.90
2023-10-14T18:40:36.990Z,4.93
2023-10-14T18:42:38.617Z,4.15
2023-10-14T18:44:40.287Z,6.15
2023-10-14T18:46:41.895Z,1.58
2023-10-14T18:48:43.951Z,3.08
2023-10-14T18:50:45.550Z,2.13
2023-10-14T18:52:48.749Z,3.47
2023-10-14T18:54:50.402Z,5.15
2023-10-14T18:56:54.778Z,5.38
2023-10-14T18:58:57.412Z,3.72
2023-10-14T19:01:00.913Z,8.27
2023-10-14T19:03:05.672Z,4.25
2023-10-14T19:05:09.148Z,3.25
2023-10-14T19:07:10.982Z,6.55
2023-10-14T19:09:12.684Z,4.50
2023-10-14T19:11:16.227Z,5.35
2023-10-14T19:13:18.030Z,6.72
2023-10-14T19:15:21.107Z,3.55
2023-10-14T19:17:22.893Z,8.38
2023-10-14T19:19:25.689Z,5.25
2023-10-14T19:21:27.515Z,5.63
2023-10-14T19:23:29.179Z,4.47
2023-10-14T19:25:30.997Z,4.10
2023-10-14T19:27:39.422Z,1.77
2023-10-14T19:29:48.613Z,9.02
2023-10-14T19:31:50.274Z,6.57
2023-10-14T19:33:51.900Z,5.07
2023-10-14T19:35:57.427Z,4.53
2023-10-14T19:37:59.595Z,5.47
2023-10-14T19:40:02.364Z,6.45
2023-10-14T19:42:05.469Z,4.40
2023-10-14T19:44:07.353Z,3.65
2023-10-14T19:46:12.089Z,3.05
2023-10-14T19:48:13.814Z,2.33
2023-10-14T19:50:16.757Z,2.10
2023-10-14T19:52:18.632Z,4.22
2023-10-14T19:54:22.401Z,2.65
2023-10-14T19:56:24.551Z,4.70
2023-10-14T19:58:27.173Z,1.77
2023-10-14T20:00:29.524Z,7.68
2023-10-14T20:04:34.249Z,5.60
2023-10-14T20:06:38.394Z,6.57
2023-10-14T20:08:40.026Z,5.38
2023-10-14T20:10:41.958Z,8.13
2023-10-14T20:12:44.068Z,9.45
2023-10-14T20:14:45.713Z,3.92
2023-10-14T20:16:48.965Z,7.10
2023-10-14T20:18:50.622Z,6.57
2023-10-14T20:20:52.508Z,9.25
2023-10-14T20:22:54.180Z,5.63
2023-10-14T20:24:55.765Z,11.18
2023-10-14T20:26:57.584Z,4.35
2023-10-14T20:29:00.453Z,5.82
2023-10-14T20:31:03.498Z,4.90
2023-10-14T20:33:06.638Z,4.50
2023-10-14T20:35:08.594Z,3.30
2023-10-14T20:37:13.368Z,8.00
2023-10-14T20:39:29.287Z,6.72
2023-10-14T20:41:31.464Z,4.18
2023-10-14T20:43:33.461Z,3.40
2023-10-14T20:45:35.991Z,4.07
2023-10-14T20:47:37.619Z,3.67
2023-10-14T20:49:39.195Z,3.35
2023-10-14T20:51:40.885Z,4.25
2023-10-14T20:53:44.325Z,10.38
2023-10-14T20:55:48.557Z,9.90
2023-10-14T20:57:54.097Z,4.93
2023-10-14T20:59:55.662Z,5.88
2023-10-14T21:01:57.322Z,4.43
2023-10-14T21:04:02.267Z,4.18
2023-10-14T21:06:06.965Z,3.60
2023-10-14T21:08:15.971Z,2.72
2023-10-14T21:10:21.122Z,4.90
2023-10-14T21:12:22.830Z,4.90
2023-10-14T21:14:24.793Z,5.13
2023-10-14T21:16:26.660Z,3.00
2023-10-14T21:18:29.088Z,5.32
2023-10-14T21:20:30.804Z,10.27
2023-10-14T21:22:33.791Z,5.68
2023-10-14T21:24:36.298Z,7.47
2023-10-14T21:26:39.555Z,6.70
2023-10-14T21:28:42.256Z,3.65
2023-10-14T21:30:43.896Z,3.50
2023-10-14T21:32:50.646Z,5.65
2023-10-14T21:34:52.362Z,7.03
2023-10-14T21:36:54.050Z,11.85
2023-10-14T21:38:55.645Z,2.67
2023-10-14T21:40:57.271Z,5.78
2023-10-14T21:42:59.228Z,4.03
2023-10-14T21:45:00.887Z,2.38
2023-10-14T21:47:02.926Z,3.17
2023-10-14T21:49:07.167Z,9.30
2023-10-14T21:51:09.086Z,8.52
2023-10-14T21:53:11.267Z,3.95
2023-10-14T21:55:17.369Z,2.95
2023-10-14T21:57:19.029Z,5.95
2023-10-14T21:59:23.291Z,4.90
2023-10-14T22:01:25.135Z,2.83
2023-10-14T22:03:27.044Z,5.05
2023-10-14T22:05:30.789Z,8.27
2023-10-14T22:07:33.414Z,5.65
2023-10-14T22:09:36.383Z,6.72
2023-10-14T22:11:39.088Z,3.40
2023-10-14T22:13:41.231Z,4.07
2023-10-14T22:15:43.156Z,9.02
2023-10-14T22:17:46.480Z,5.30
2023-10-14T22:19:48.518Z,5.35
2023-10-14T22:21:50.201Z,5.35
2023-10-14T22:23:51.886Z,4.25
2023-10-14T22:25:57.322Z,3.47
2023-10-14T22:27:59.917Z,4.30
2023-10-14T22:30:01.555Z,4.20
2023-10-14T22:32:03.205Z,5.05
2023-10-14T22:34:07.456Z,3.25
2023-10-14T22:36:12.252Z,4.03
2023-10-14T22:38:13.890Z,3.78
2023-10-14T22:40:18.629Z,6.88
2023-10-14T22:42:20.190Z,4.18
2023-10-14T22:44:24.704Z,8.07
2023-10-14T22:46:28.810Z,5.35
2023-10-14T22:48:31.330Z,4.03
2023-10-14T22:52:34.612Z,4.00
2023-10-14T22:54:36.224Z,6.50
2023-10-14T22:56:38.301Z,4.10
2023-10-14T22:58:40.038Z,3.90
2023-10-14T23:00:41.712Z,12.43
2023-10-14T23:02:47.086Z,4.70
2023-10-14T23:04:58.730Z,12.18
2023-10-14T23:07:11.585Z,3.33
2023-10-14T23:09:15.126Z,3.30
2023-10-14T23:11:16.811Z,7.32
2023-10-14T23:13:18.425Z,2.95
2023-10-14T23:15:20.746Z,5.05
2023-10-14T23:19:25.388Z,3.45
2023-10-14T23:21:27.114Z,4.10
2023-10-14T23:23:29.665Z,3.65
2023-10-14T23:25:32.692Z,5.88
2023-10-14T23:27:34.286Z,3.47
2023-10-14T23:29:35.856Z,5.45
2023-10-14T23:31:37.644Z,5.80
2023-10-14T23:33:39.339Z,10.75
2023-10-14T23:35:41.764Z,4.70
2023-10-14T23:39:45.645Z,4.45
2023-10-14T23:41:47.221Z,7.82
2023-10-14T23:43:48.820Z,6.20
2023-10-14T23:45:51.945Z,4.28
2023-10-14T23:47:54.157Z,8.23
2023-10-14T23:49:55.796Z,6.28
2023-10-14T23:51:57.473Z,4.07
2023-10-14T23:54:02.504Z,6.95
2023-10-14T23:56:06.976Z,6.72
2023-10-14T23:58:10.225Z,9.98
